Terminal Aerodrome Forecast
Issued by NWS

Home | Current Version | Previous Version | Text Only | Print | Product List | Glossary On
Versions: 1 2 3 4 5 6 7 8 9 10 11 12 13 14 15 16 17 18 19 20 21 22
324
FTUS41 KPBZ 231724
TAFMGW
TAF
KMGW 231724Z 2318/2418 07010G20KT P6SM -RA OVC025
     FM232200 06010KT 3SM -RA BR OVC015
     FM240500 36005KT P6SM -RASN OVC008
     FM240900 30005KT P6SM VCSH OVC008
     FM241200 29008KT P6SM OVC015=

USA.gov is the U.S. government's official web portal to all federal, state and local government web resources and services.